createdAt,value
2018-09-01T00:01:12.994Z,52.20
2018-09-01T00:02:29.802Z,52.20
2018-09-01T00:03:47.181Z,52.90
2018-09-01T00:05:04.595Z,52.20
2018-09-01T00:06:21.534Z,52.20
2018-09-01T00:07:38.404Z,52.20
2018-09-01T00:08:55.248Z,52.10
2018-09-01T00:10:12.089Z,52.30
2018-09-01T00:11:29.474Z,52.20
2018-09-01T00:12:46.199Z,52.30
2018-09-01T00:14:03.175Z,52.20
2018-09-01T00:15:19.664Z,52.30
2018-09-01T00:16:36.796Z,52.20
2018-09-01T00:17:53.377Z,52.20
2018-09-01T00:19:10.098Z,52.30
2018-09-01T00:20:26.828Z,52.20
2018-09-01T00:21:43.685Z,52.20
2018-09-01T00:23:00.928Z,52.20
2018-09-01T00:24:18.343Z,52.20
2018-09-01T00:25:35.932Z,52.30
2018-09-01T00:26:52.864Z,52.20
2018-09-01T00:28:09.931Z,52.20
2018-09-01T00:29:26.512Z,52.20
2018-09-01T00:30:43.965Z,52.20
2018-09-01T00:32:00.656Z,52.40
2018-09-01T00:33:17.239Z,52.30
2018-09-01T00:34:33.836Z,52.30
2018-09-01T00:35:51.001Z,52.30
2018-09-01T00:37:08.276Z,52.30
2018-09-01T00:38:31.219Z,52.30
2018-09-01T00:39:48.704Z,52.70
2018-09-01T00:41:05.486Z,52.30
2018-09-01T00:42:22.015Z,52.20
2018-09-01T00:43:38.542Z,52.20
2018-09-01T00:44:55.370Z,52.20
2018-09-01T00:46:12.309Z,52.20
2018-09-01T00:47:28.989Z,52.40
2018-09-01T00:48:45.856Z,52.30
2018-09-01T00:50:02.843Z,52.40
2018-09-01T00:51:19.466Z,52.30
2018-09-01T00:52:36.394Z,52.30
2018-09-01T00:53:53.013Z,52.40
2018-09-01T00:55:13.830Z,52.40
2018-09-01T00:56:31.327Z,52.40
2018-09-01T00:57:48.360Z,52.40
2018-09-01T00:59:05.842Z,53.10
2018-09-01T01:00:22.966Z,52.40
2018-09-01T01:01:40.514Z,52.40
2018-09-01T01:02:57.390Z,52.40
2018-09-01T01:04:14.157Z,52.30
2018-09-01T01:05:30.773Z,52.60
2018-09-01T01:06:47.995Z,52.30
2018-09-01T01:08:04.853Z,52.40
2018-09-01T01:09:21.497Z,52.40
2018-09-01T01:10:38.470Z,52.40
2018-09-01T01:11:54.997Z,51.80
2018-09-01T01:13:11.861Z,52.90
2018-09-01T01:14:28.751Z,52.30
2018-09-01T01:15:45.463Z,52.40
2018-09-01T01:17:02.266Z,52.40
2018-09-01T01:18:18.803Z,51.80
2018-09-01T01:19:35.581Z,52.50
2018-09-01T01:20:52.279Z,52.40
2018-09-01T01:22:09.079Z,52.40
2018-09-01T01:23:26.525Z,52.60
2018-09-01T01:24:43.349Z,52.40
2018-09-01T01:26:00.073Z,52.40
2018-09-01T01:27:16.723Z,52.30
2018-09-01T01:28:33.565Z,52.30
2018-09-01T01:29:50.352Z,52.40
2018-09-01T01:31:07.177Z,52.40
2018-09-01T01:32:24.276Z,52.40
2018-09-01T01:33:42.044Z,52.40
2018-09-01T01:35:02.621Z,52.40
2018-09-01T01:36:19.610Z,52.40
2018-09-01T01:37:36.948Z,51.90
2018-09-01T01:38:54.001Z,52.40
2018-09-01T01:40:11.017Z,52.40
2018-09-01T01:41:28.524Z,52.40
2018-09-01T01:42:45.204Z,52.40
2018-09-01T01:44:02.004Z,52.40
2018-09-01T01:45:18.699Z,52.40
2018-09-01T01:46:35.305Z,52.50
2018-09-01T01:47:52.118Z,52.40
2018-09-01T01:49:09.118Z,52.60
2018-09-01T01:50:26.162Z,52.40
2018-09-01T01:51:42.957Z,52.30
2018-09-01T01:52:59.721Z,52.40
2018-09-01T01:54:16.220Z,52.40
2018-09-01T01:55:33.266Z,52.40
2018-09-01T01:56:50.240Z,52.40
2018-09-01T01:58:06.733Z,52.40
2018-09-01T01:59:23.396Z,52.50
2018-09-01T02:00:40.909Z,52.50
2018-09-01T02:01:57.621Z,52.50
2018-09-01T02:03:14.094Z,52.50
2018-09-01T02:04:30.790Z,52.40
2018-09-01T02:05:47.619Z,52.50
2018-09-01T02:07:04.313Z,52.40
2018-09-01T02:08:21.107Z,52.40
2018-09-01T02:09:37.913Z,52.40
2018-09-01T02:10:54.966Z,52.50
2018-09-01T02:12:11.622Z,52.40
2018-09-01T02:13:28.092Z,52.40
2018-09-01T02:14:44.965Z,52.40
2018-09-01T02:16:01.901Z,52.50
2018-09-01T02:17:18.675Z,52.40
2018-09-01T02:18:35.170Z,52.40
2018-09-01T02:19:51.999Z,52.40
2018-09-01T02:21:08.728Z,52.50
2018-09-01T02:22:25.673Z,52.40
2018-09-01T02:23:42.229Z,52.40
2018-09-01T02:24:59.208Z,52.50
2018-09-01T02:26:15.707Z,52.40
2018-09-01T02:27:32.258Z,52.40
2018-09-01T02:28:49.142Z,52.40
2018-09-01T02:30:05.951Z,53.30
2018-09-01T02:31:22.697Z,52.50
2018-09-01T02:32:39.573Z,52.40
2018-09-01T02:33:56.412Z,52.40
2018-09-01T02:35:13.220Z,52.60
2018-09-01T02:36:30.121Z,52.50
2018-09-01T02:37:46.759Z,52.50
2018-09-01T02:39:05.009Z,52.50
2018-09-01T02:40:21.606Z,52.50
2018-09-01T02:41:38.628Z,52.50
2018-09-01T02:42:55.528Z,52.50
2018-09-01T02:44:12.132Z,52.50
2018-09-01T02:45:29.591Z,52.50
2018-09-01T02:46:46.590Z,52.70
2018-09-01T02:48:03.403Z,52.60
2018-09-01T02:49:20.318Z,52.60
2018-09-01T02:50:37.034Z,52.60
2018-09-01T02:51:54.081Z,52.50
2018-09-01T02:53:11.723Z,52.60
2018-09-01T02:54:28.298Z,52.60
2018-09-01T02:55:45.299Z,52.50
2018-09-01T02:57:02.556Z,52.60
2018-09-01T02:58:19.688Z,52.60
2018-09-01T02:59:36.644Z,52.70
2018-09-01T03:00:58.670Z,52.60
2018-09-01T03:02:47.119Z,52.60
2018-09-01T03:04:04.851Z,52.60
2018-09-01T03:05:22.098Z,52.60
2018-09-01T03:06:51.558Z,52.60
2018-09-01T03:08:08.784Z,52.60
2018-09-01T03:09:26.417Z,52.70
2018-09-01T03:10:43.128Z,52.70
2018-09-01T03:11:59.997Z,52.60
2018-09-01T03:13:17.381Z,52.60
2018-09-01T03:14:35.297Z,52.60
2018-09-01T03:15:52.180Z,52.70
2018-09-01T03:17:08.905Z,52.60
2018-09-01T03:18:25.890Z,52.60
2018-09-01T03:19:42.735Z,52.60
2018-09-01T03:20:59.333Z,52.60
2018-09-01T03:22:16.203Z,52.70
2018-09-01T03:23:32.977Z,52.60
2018-09-01T03:24:49.734Z,52.50
2018-09-01T03:26:06.434Z,52.50
2018-09-01T03:27:23.284Z,52.50
2018-09-01T03:28:40.124Z,52.50
2018-09-01T03:29:57.274Z,53.10
2018-09-01T03:31:14.639Z,52.50
2018-09-01T03:32:31.536Z,52.50
2018-09-01T03:33:48.246Z,52.50
2018-09-01T03:35:05.583Z,52.50
2018-09-01T03:36:22.965Z,52.60
2018-09-01T03:37:39.748Z,52.50
2018-09-01T03:38:56.345Z,52.50
2018-09-01T03:40:12.959Z,52.40
2018-09-01T03:41:29.922Z,52.40
2018-09-01T03:42:46.433Z,52.40
2018-09-01T03:44:03.314Z,52.40
2018-09-01T03:45:19.911Z,52.40
2018-09-01T03:46:36.626Z,52.60
2018-09-01T03:47:54.320Z,52.40
2018-09-01T03:49:11.950Z,52.30
2018-09-01T03:50:29.387Z,52.40
2018-09-01T03:51:46.917Z,52.50
2018-09-01T03:53:03.852Z,52.30
2018-09-01T03:54:20.664Z,52.70
2018-09-01T03:55:37.409Z,52.30
2018-09-01T03:56:54.276Z,52.30
2018-09-01T03:58:11.218Z,52.20
2018-09-01T03:59:27.733Z,52.20
2018-09-01T04:00:44.787Z,52.20
2018-09-01T04:02:01.212Z,52.20
2018-09-01T04:03:18.186Z,52.10
2018-09-01T04:04:34.856Z,52.20
2018-09-01T04:05:51.774Z,52.10
2018-09-01T04:07:08.594Z,51.50
2018-09-01T04:08:25.399Z,52.10
2018-09-01T04:09:42.829Z,52.10
2018-09-01T04:10:59.437Z,52.10
2018-09-01T04:12:16.194Z,52.10
2018-09-01T04:13:32.937Z,52.10
2018-09-01T04:14:49.956Z,52.10
2018-09-01T04:16:06.839Z,52.10
2018-09-01T04:17:24.053Z,52.00
2018-09-01T04:18:40.572Z,52.00
2018-09-01T04:19:57.637Z,52.10
2018-09-01T04:21:14.704Z,52.00
2018-09-01T04:22:31.460Z,52.00
2018-09-01T04:23:48.321Z,52.00
2018-09-01T04:25:05.101Z,51.50
2018-09-01T04:26:22.124Z,52.00
2018-09-01T04:27:38.705Z,52.00
2018-09-01T04:28:55.470Z,51.90
2018-09-01T04:30:12.034Z,51.90
2018-09-01T04:31:28.875Z,51.90
2018-09-01T04:32:46.042Z,52.30
2018-09-01T04:34:03.439Z,51.90
2018-09-01T04:35:20.194Z,51.90
2018-09-01T04:36:37.196Z,51.80
2018-09-01T04:37:53.891Z,51.80
2018-09-01T04:39:12.136Z,51.80
2018-09-01T04:40:29.223Z,51.80
2018-09-01T04:41:46.217Z,51.80
2018-09-01T04:43:02.959Z,51.80
2018-09-01T04:44:19.897Z,51.80
2018-09-01T04:45:36.546Z,51.80
2018-09-01T04:46:53.745Z,51.80
2018-09-01T04:48:10.772Z,51.80
2018-09-01T04:49:28.223Z,51.70
2018-09-01T04:50:44.991Z,51.70
2018-09-01T04:52:02.011Z,51.80
2018-09-01T04:53:19.054Z,51.70
2018-09-01T04:54:35.856Z,51.80
2018-09-01T04:55:52.766Z,51.70
2018-09-01T04:57:09.957Z,51.70
2018-09-01T04:58:27.598Z,51.70
2018-09-01T04:59:45.058Z,51.70
2018-09-01T05:01:01.953Z,51.70
2018-09-01T05:02:18.692Z,51.60
2018-09-01T05:03:35.639Z,51.00
2018-09-01T05:04:52.562Z,51.60
2018-09-01T05:06:09.103Z,51.60
2018-09-01T05:07:26.515Z,51.60
2018-09-01T05:08:43.436Z,51.50
2018-09-01T05:10:01.028Z,51.60
2018-09-01T05:11:17.719Z,51.60
2018-09-01T05:12:34.371Z,51.60
2018-09-01T05:13:51.373Z,51.60
2018-09-01T05:15:08.390Z,51.50
2018-09-01T05:16:25.106Z,51.60
2018-09-01T05:17:41.964Z,51.50
2018-09-01T05:18:58.928Z,51.40
2018-09-01T05:20:16.604Z,51.60
2018-09-01T05:21:39.690Z,51.40
2018-09-01T05:22:57.085Z,51.40
2018-09-01T05:24:13.617Z,51.40
2018-09-01T05:25:30.558Z,51.40
2018-09-01T05:26:47.272Z,51.40
2018-09-01T05:28:04.078Z,51.40
2018-09-01T05:29:20.957Z,51.60
2018-09-01T05:30:37.884Z,51.40
2018-09-01T05:31:54.723Z,51.40
2018-09-01T05:33:11.453Z,51.30
2018-09-01T05:34:28.053Z,51.20
2018-09-01T05:35:45.048Z,51.30
2018-09-01T05:37:02.641Z,51.30
2018-09-01T05:38:19.670Z,51.30
2018-09-01T05:39:37.139Z,51.30
2018-09-01T05:40:53.934Z,51.30
2018-09-01T05:42:10.801Z,51.30
2018-09-01T05:43:27.860Z,51.30
2018-09-01T05:44:44.572Z,51.30
2018-09-01T05:46:01.305Z,51.30
2018-09-01T05:47:18.280Z,51.30
2018-09-01T05:48:35.909Z,51.30
2018-09-01T05:49:52.429Z,51.10
2018-09-01T05:51:09.142Z,51.80
2018-09-01T05:52:26.208Z,51.20
2018-09-01T05:53:43.969Z,51.10
2018-09-01T05:55:00.533Z,51.20
2018-09-01T05:56:17.508Z,51.10
2018-09-01T05:57:34.308Z,51.20
2018-09-01T05:58:51.801Z,51.20
2018-09-01T06:00:09.415Z,51.10
2018-09-01T06:01:26.444Z,51.10
2018-09-01T06:02:43.334Z,51.20
2018-09-01T06:04:00.424Z,51.10
2018-09-01T06:05:17.289Z,51.10
2018-09-01T06:06:34.089Z,51.60
2018-09-01T06:07:51.058Z,51.00
2018-09-01T06:09:09.145Z,51.10
2018-09-01T06:10:26.399Z,51.10
2018-09-01T06:11:42.922Z,51.00
2018-09-01T06:12:59.874Z,50.90
2018-09-01T06:14:16.749Z,50.90
2018-09-01T06:15:33.392Z,50.90
2018-09-01T06:16:50.206Z,50.90
2018-09-01T06:18:07.269Z,50.90
2018-09-01T06:19:24.602Z,51.00
2018-09-01T06:20:41.650Z,50.90
2018-09-01T06:21:58.619Z,50.80
2018-09-01T06:23:15.220Z,50.80
2018-09-01T06:24:32.087Z,50.80
2018-09-01T06:25:48.880Z,50.80
2018-09-01T06:27:11.405Z,50.80
2018-09-01T06:28:33.686Z,50.90
2018-09-01T06:29:51.409Z,50.80
2018-09-01T06:31:08.814Z,50.70
2018-09-01T06:32:26.129Z,50.70
2018-09-01T06:33:43.556Z,50.80
2018-09-01T06:35:02.188Z,50.70
2018-09-01T06:36:25.981Z,50.80
2018-09-01T06:37:42.995Z,50.80
2018-09-01T06:39:00.030Z,50.70
2018-09-01T06:40:17.662Z,50.70
2018-09-01T06:41:34.635Z,50.80
2018-09-01T06:42:52.065Z,50.60
2018-09-01T06:44:11.054Z,50.60
2018-09-01T06:45:29.452Z,50.70
2018-09-01T06:46:47.092Z,50.60
2018-09-01T06:48:04.659Z,51.00
2018-09-01T06:49:21.561Z,50.60
2018-09-01T06:50:38.405Z,50.60
2018-09-01T06:51:55.433Z,50.60
2018-09-01T06:53:13.034Z,50.60
2018-09-01T06:54:29.690Z,50.60
2018-09-01T06:55:46.310Z,51.00
2018-09-01T06:57:03.194Z,50.40
2018-09-01T06:58:20.005Z,50.40
2018-09-01T06:59:37.005Z,50.50
2018-09-01T07:00:54.810Z,50.40
2018-09-01T07:02:11.630Z,50.40
2018-09-01T07:03:28.380Z,50.40
2018-09-01T07:04:44.964Z,50.40
2018-09-01T07:06:01.631Z,50.20
2018-09-01T07:07:18.282Z,50.20
2018-09-01T07:08:35.023Z,50.20
2018-09-01T07:09:51.848Z,50.20
2018-09-01T07:11:09.951Z,50.20
2018-09-01T07:12:27.615Z,50.20
2018-09-01T07:13:44.365Z,50.20
2018-09-01T07:15:01.161Z,50.20
2018-09-01T07:16:17.912Z,50.10
2018-09-01T07:17:35.198Z,50.10
2018-09-01T07:18:52.587Z,50.10
2018-09-01T07:20:09.525Z,50.10
2018-09-01T07:21:26.130Z,50.00
2018-09-01T07:22:42.827Z,50.00
2018-09-01T07:24:00.334Z,50.60
2018-09-01T07:25:17.287Z,50.60
2018-09-01T07:26:33.893Z,49.70
2018-09-01T07:27:50.850Z,49.70
2018-09-01T07:29:07.761Z,49.70
2018-09-01T07:30:24.559Z,49.90
2018-09-01T07:31:41.387Z,49.70
2018-09-01T07:32:59.420Z,49.70
2018-09-01T07:34:16.825Z,50.40
2018-09-01T07:35:39.906Z,49.80
2018-09-01T07:36:57.443Z,49.70
2018-09-01T07:38:14.699Z,49.50
2018-09-01T07:39:32.222Z,49.50
2018-09-01T07:40:48.852Z,49.50
2018-09-01T07:42:05.855Z,49.50
2018-09-01T07:43:23.414Z,49.60
2018-09-01T07:44:40.864Z,49.50
2018-09-01T07:45:58.294Z,49.50
2018-09-01T07:47:16.682Z,49.60
2018-09-01T07:48:33.633Z,49.50
2018-09-01T07:49:50.490Z,49.60
2018-09-01T07:51:07.238Z,49.50
2018-09-01T07:52:24.474Z,49.60
2018-09-01T07:53:42.091Z,49.50
2018-09-01T07:54:59.614Z,50.20
2018-09-01T07:56:16.785Z,49.50
2018-09-01T07:57:34.226Z,49.90
2018-09-01T07:58:51.292Z,49.50
2018-09-01T08:00:08.290Z,49.50
2018-09-01T08:01:25.767Z,49.50
2018-09-01T08:02:42.855Z,49.60
2018-09-01T08:03:59.453Z,49.50
2018-09-01T08:05:16.272Z,49.50
2018-09-01T08:06:32.988Z,49.60
2018-09-01T08:07:50.282Z,49.50
2018-09-01T08:09:08.915Z,50.20
2018-09-01T08:10:25.599Z,49.50
2018-09-01T08:11:42.163Z,49.50
2018-09-01T08:12:59.121Z,49.50
2018-09-01T08:14:16.103Z,49.60
2018-09-01T08:15:32.846Z,49.50
2018-09-01T08:16:49.559Z,49.40
2018-09-01T08:18:06.298Z,49.80
2018-09-01T08:19:23.070Z,49.30
2018-09-01T08:20:39.969Z,49.20
2018-09-01T08:21:56.704Z,49.30
2018-09-01T08:23:13.557Z,49.20
2018-09-01T08:24:30.232Z,49.30
2018-09-01T08:25:47.797Z,49.30
2018-09-01T08:27:04.805Z,49.20
2018-09-01T08:28:21.619Z,49.00
2018-09-01T08:29:38.459Z,49.10
2018-09-01T08:30:55.452Z,48.50
2018-09-01T08:32:12.203Z,49.00
2018-09-01T08:33:28.815Z,49.00
2018-09-01T08:34:45.618Z,48.90
2018-09-01T08:36:02.165Z,48.90
2018-09-01T08:37:18.985Z,48.80
2018-09-01T08:38:35.925Z,48.80
2018-09-01T08:39:53.576Z,48.80
2018-09-01T08:41:10.444Z,48.60
2018-09-01T08:42:28.412Z,48.60
2018-09-01T08:43:45.941Z,48.60
2018-09-01T08:45:02.889Z,48.70
2018-09-01T08:46:19.389Z,48.50
2018-09-01T08:47:36.164Z,48.50
2018-09-01T08:48:52.829Z,48.40
2018-09-01T08:50:10.189Z,48.40
2018-09-01T08:51:27.173Z,48.40
2018-09-01T08:52:44.078Z,48.40
2018-09-01T08:54:00.921Z,48.50
2018-09-01T08:55:17.569Z,48.90
2018-09-01T08:56:34.189Z,48.10
2018-09-01T08:57:51.080Z,48.20
2018-09-01T08:59:07.702Z,48.20
2018-09-01T09:00:24.678Z,48.20
2018-09-01T09:01:45.852Z,48.10
2018-09-01T09:03:03.445Z,48.10
2018-09-01T09:04:20.775Z,48.60
2018-09-01T09:05:37.846Z,48.00
2018-09-01T09:06:55.201Z,48.00
2018-09-01T09:08:12.101Z,47.90
2018-09-01T09:09:29.969Z,48.00
2018-09-01T09:10:47.608Z,47.90
2018-09-01T09:12:04.070Z,47.90
2018-09-01T09:13:20.789Z,47.90
2018-09-01T09:14:37.914Z,47.80
2018-09-01T09:15:54.808Z,47.90
2018-09-01T09:17:11.719Z,47.80
2018-09-01T09:18:28.364Z,48.60
2018-09-01T09:19:45.193Z,47.80
2018-09-01T09:21:01.887Z,47.80
2018-09-01T09:22:19.684Z,47.80
2018-09-01T09:23:36.814Z,47.80
2018-09-01T09:24:53.934Z,47.70
2018-09-01T09:26:11.529Z,47.80
2018-09-01T09:27:28.217Z,47.70
2018-09-01T09:28:45.203Z,47.70
2018-09-01T09:30:04.937Z,47.80
2018-09-01T09:31:21.789Z,47.80
2018-09-01T09:32:38.653Z,47.80
2018-09-01T09:33:55.206Z,47.90
2018-09-01T09:35:12.297Z,47.80
2018-09-01T09:36:29.585Z,47.70
2018-09-01T09:37:47.702Z,47.70
2018-09-01T09:39:07.325Z,47.70
2018-09-01T09:40:24.598Z,47.70
2018-09-01T09:41:42.312Z,47.70
2018-09-01T09:42:59.066Z,47.50
2018-09-01T09:44:15.853Z,47.60
2018-09-01T09:45:36.982Z,47.70
2018-09-01T09:46:54.440Z,47.70
2018-09-01T09:48:11.873Z,47.60
2018-09-01T09:49:28.547Z,47.50
2018-09-01T09:50:45.422Z,47.50
2018-09-01T09:52:03.529Z,47.50
2018-09-01T09:53:20.974Z,47.50
2018-09-01T09:54:38.539Z,47.50
2018-09-01T09:55:55.860Z,47.50
2018-09-01T09:57:12.673Z,47.60
2018-09-01T09:58:31.457Z,47.50
2018-09-01T09:59:48.014Z,47.50
2018-09-01T10:01:04.909Z,47.40
2018-09-01T10:02:23.246Z,47.40
2018-09-01T10:03:42.451Z,47.40
2018-09-01T10:04:59.776Z,47.50
2018-09-01T10:06:16.345Z,47.50
2018-09-01T10:07:33.549Z,47.40
2018-09-01T10:08:50.805Z,47.40
2018-09-01T10:10:07.773Z,47.30
2018-09-01T10:11:24.746Z,47.30
2018-09-01T10:12:41.307Z,47.30
2018-09-01T10:13:58.461Z,47.30
2018-09-01T10:15:15.081Z,47.40
2018-09-01T10:16:31.841Z,47.40
2018-09-01T10:17:48.509Z,47.30
2018-09-01T10:19:06.116Z,47.30
2018-09-01T10:20:23.277Z,47.30
2018-09-01T10:21:40.169Z,47.30
2018-09-01T10:22:57.224Z,47.30
2018-09-01T10:24:14.750Z,47.30
2018-09-01T10:25:32.234Z,47.20
2018-09-01T10:26:51.304Z,47.20
2018-09-01T10:28:08.713Z,47.20
2018-09-01T10:29:25.515Z,47.20
2018-09-01T10:30:42.280Z,47.20
2018-09-01T10:31:59.846Z,47.20
2018-09-01T10:33:17.527Z,47.60
2018-09-01T10:34:34.564Z,46.80
2018-09-01T10:35:52.176Z,47.80
2018-09-01T10:37:08.960Z,47.10
2018-09-01T10:38:25.842Z,47.10
2018-09-01T10:39:42.501Z,47.10
2018-09-01T10:40:59.070Z,47.00
2018-09-01T10:42:16.074Z,47.10
2018-09-01T10:43:32.880Z,47.20
2018-09-01T10:44:49.645Z,46.80
2018-09-01T10:46:06.544Z,47.00
2018-09-01T10:47:23.280Z,46.90
2018-09-01T10:48:40.124Z,46.90
2018-09-01T10:49:56.749Z,47.40
2018-09-01T10:51:13.517Z,46.90
2018-09-01T10:52:30.341Z,47.00
2018-09-01T10:53:47.153Z,47.00
2018-09-01T10:55:03.999Z,47.00
2018-09-01T10:56:20.625Z,47.00
2018-09-01T10:57:37.431Z,47.10
2018-09-01T10:58:54.173Z,47.00
2018-09-01T11:00:11.491Z,47.00
2018-09-01T11:01:28.841Z,47.00
2018-09-01T11:02:45.895Z,47.10
2018-09-01T11:04:03.306Z,47.80
2018-09-01T11:05:20.358Z,47.10
2018-09-01T11:06:38.592Z,47.00
2018-09-01T11:07:55.451Z,47.20
2018-09-01T11:09:12.368Z,47.30
2018-09-01T11:10:29.097Z,47.00
2018-09-01T11:11:51.371Z,46.90
2018-09-01T11:13:07.970Z,46.50
2018-09-01T11:14:24.775Z,46.10
2018-09-01T11:15:42.133Z,46.10
2018-09-01T11:16:59.464Z,46.00
2018-09-01T11:18:16.257Z,46.00
2018-09-01T11:19:33.536Z,46.30
2018-09-01T11:20:51.045Z,46.10
2018-09-01T11:22:07.871Z,45.90
2018-09-01T11:23:24.832Z,45.60
2018-09-01T11:24:42.376Z,45.30
2018-09-01T11:25:59.670Z,45.30
2018-09-01T11:27:16.663Z,45.10
2018-09-01T11:28:33.214Z,45.20
2018-09-01T11:29:50.048Z,45.30
2018-09-01T11:31:08.691Z,45.20
2018-09-01T11:32:26.049Z,45.80
2018-09-01T11:33:43.416Z,44.90
2018-09-01T11:35:00.289Z,44.50
2018-09-01T11:36:17.171Z,44.40
2018-09-01T11:37:33.742Z,44.90
2018-09-01T11:38:50.575Z,44.30
2018-09-01T11:40:07.386Z,44.60
2018-09-01T11:41:24.084Z,44.90
2018-09-01T11:42:40.846Z,45.00
2018-09-01T11:43:57.811Z,44.90
2018-09-01T11:45:15.284Z,44.90
2018-09-01T11:46:32.099Z,44.60
2018-09-01T11:47:48.964Z,44.00
2018-09-01T11:49:05.758Z,44.10
2018-09-01T11:50:22.381Z,44.30
2018-09-01T11:51:39.153Z,43.80
2018-09-01T11:52:56.079Z,44.00
2018-09-01T11:54:13.733Z,43.60
2018-09-01T11:55:30.378Z,43.70
2018-09-01T11:56:47.086Z,43.60
2018-09-01T11:58:04.680Z,43.30
2018-09-01T11:59:21.511Z,43.50
2018-09-01T12:00:38.310Z,43.40
2018-09-01T12:01:55.739Z,43.00
2018-09-01T12:03:12.637Z,43.10
2018-09-01T12:04:29.515Z,43.10
2018-09-01T12:05:46.377Z,42.70
2018-09-01T12:07:03.288Z,42.70
2018-09-01T12:08:22.292Z,42.40
2018-09-01T12:09:39.761Z,43.10
2018-09-01T12:10:56.450Z,42.80
2018-09-01T12:12:13.344Z,43.20
2018-09-01T12:13:30.232Z,42.70
2018-09-01T12:14:47.118Z,42.50
2018-09-01T12:16:04.026Z,42.60
2018-09-01T12:17:21.027Z,42.80
2018-09-01T12:18:38.778Z,43.20
2018-09-01T12:19:55.718Z,42.70
2018-09-01T12:21:12.650Z,42.70
2018-09-01T12:22:29.483Z,42.40
2018-09-01T12:23:46.040Z,41.90
2018-09-01T12:25:03.264Z,42.20
2018-09-01T12:26:20.018Z,42.00
2018-09-01T12:27:36.793Z,42.90
2018-09-01T12:28:53.413Z,42.30
2018-09-01T12:30:10.299Z,42.00
2018-09-01T12:31:27.755Z,42.00
2018-09-01T12:32:44.849Z,42.60
2018-09-01T12:34:03.607Z,41.90
2018-09-01T12:35:20.551Z,42.00
2018-09-01T12:36:37.354Z,41.00
2018-09-01T12:37:54.135Z,41.90
2018-09-01T12:39:12.619Z,41.30
2018-09-01T12:40:29.691Z,40.90
2018-09-01T12:41:46.873Z,41.50
2018-09-01T12:43:04.201Z,40.90
2018-09-01T12:44:21.208Z,40.60
2018-09-01T12:45:38.760Z,40.50
2018-09-01T12:46:55.370Z,40.00
2018-09-01T12:48:12.172Z,40.00
2018-09-01T12:49:29.091Z,39.40
2018-09-01T12:50:45.804Z,39.20
2018-09-01T12:52:02.593Z,39.30
2018-09-01T12:53:20.328Z,39.30
2018-09-01T12:54:37.634Z,39.40
2018-09-01T12:55:54.972Z,39.30
2018-09-01T12:57:12.456Z,39.50
2018-09-01T12:58:29.368Z,39.40
2018-09-01T12:59:46.052Z,39.20
2018-09-01T13:01:02.863Z,39.20
2018-09-01T13:02:22.173Z,40.10
2018-09-01T13:03:39.600Z,39.30
2018-09-01T13:04:56.886Z,39.00
2018-09-01T13:06:13.486Z,38.90
2018-09-01T13:07:30.396Z,40.60
2018-09-01T13:08:47.167Z,39.20
2018-09-01T13:10:04.272Z,40.00
2018-09-01T13:11:21.775Z,39.10
2018-09-01T13:12:38.989Z,40.80
2018-09-01T13:13:56.344Z,39.80
2018-09-01T13:15:13.281Z,39.10
2018-09-01T13:16:30.010Z,38.20
2018-09-01T13:17:47.484Z,40.00
2018-09-01T13:19:04.533Z,38.90
2018-09-01T13:20:21.396Z,39.40
2018-09-01T13:21:38.329Z,39.10
2018-09-01T13:22:55.194Z,39.90
2018-09-01T13:24:12.004Z,39.00
2018-09-01T13:25:29.179Z,39.80
2018-09-01T13:26:46.529Z,39.00
2018-09-01T13:28:03.461Z,39.00
2018-09-01T13:29:20.725Z,39.10
2018-09-01T13:30:38.062Z,38.70
2018-09-01T13:31:54.857Z,38.70
2018-09-01T13:33:12.133Z,39.40
2018-09-01T13:34:29.904Z,38.20
2018-09-01T13:35:46.492Z,37.50
2018-09-01T13:37:04.004Z,38.20
2018-09-01T13:38:20.907Z,37.30
2018-09-01T13:39:37.713Z,38.40
2018-09-01T13:40:55.558Z,37.30
2018-09-01T13:42:12.626Z,38.10
2018-09-01T13:43:29.276Z,37.90
2018-09-01T13:44:46.250Z,37.70
2018-09-01T13:46:03.915Z,37.90
2018-09-01T13:47:20.578Z,37.60
2018-09-01T13:48:38.393Z,37.90
2018-09-01T13:49:55.193Z,38.00
2018-09-01T13:51:12.162Z,37.40
2018-09-01T13:52:28.842Z,36.30
2018-09-01T13:53:45.791Z,37.40
2018-09-01T13:55:02.428Z,37.10
2018-09-01T13:56:19.196Z,36.80
2018-09-01T13:57:35.757Z,36.70
2018-09-01T13:58:52.486Z,37.60
2018-09-01T14:00:09.461Z,36.90
2018-09-01T14:01:26.927Z,36.90
2018-09-01T14:02:44.050Z,37.00
2018-09-01T14:04:01.477Z,37.60
2018-09-01T14:05:18.309Z,36.20
2018-09-01T14:06:35.024Z,36.80
2018-09-01T14:07:52.142Z,36.20
2018-09-01T14:09:09.673Z,35.50
2018-09-01T14:10:26.636Z,35.90
2018-09-01T14:11:43.586Z,36.20
2018-09-01T14:13:00.998Z,36.20
2018-09-01T14:14:17.827Z,36.00
2018-09-01T14:15:34.758Z,35.90
2018-09-01T14:16:52.268Z,36.30
2018-09-01T14:18:09.722Z,35.90
2018-09-01T14:19:27.561Z,35.30
2018-09-01T14:20:44.786Z,35.90
2018-09-01T14:22:01.589Z,35.60
2018-09-01T14:23:18.466Z,35.40
2018-09-01T14:24:35.985Z,34.20
2018-09-01T14:25:53.378Z,35.70
2018-09-01T14:27:10.758Z,35.80
2018-09-01T14:28:30.978Z,35.60
2018-09-01T14:29:48.428Z,34.40
2018-09-01T14:31:06.653Z,35.30
2018-09-01T14:32:24.793Z,35.10
2018-09-01T14:33:41.654Z,35.10
2018-09-01T14:34:58.472Z,35.00
2018-09-01T14:36:15.251Z,34.20
2018-09-01T14:37:32.294Z,34.60
2018-09-01T14:38:49.737Z,34.60
2018-09-01T14:40:07.008Z,33.80
2018-09-01T14:41:24.138Z,34.90
2018-09-01T14:42:41.692Z,34.50
2018-09-01T14:43:58.399Z,34.30
2018-09-01T14:45:15.440Z,34.70
2018-09-01T14:46:32.178Z,32.70
2018-09-01T14:47:49.236Z,34.10
2018-09-01T14:49:07.066Z,32.50
2018-09-01T14:50:23.659Z,33.80
2018-09-01T14:51:40.342Z,33.70
2018-09-01T14:52:57.239Z,32.20
2018-09-01T14:54:14.756Z,32.30
2018-09-01T14:55:31.804Z,33.00
2018-09-01T14:56:48.559Z,32.60
2018-09-01T14:58:05.137Z,33.00
2018-09-01T14:59:21.956Z,33.70
2018-09-01T15:00:40.205Z,33.40
2018-09-01T15:01:57.743Z,33.50
2018-09-01T15:03:14.931Z,33.90
2018-09-01T15:04:32.462Z,33.70
2018-09-01T15:05:49.304Z,34.20
2018-09-01T15:07:06.080Z,33.60
2018-09-01T15:08:22.837Z,34.40
2018-09-01T15:09:39.869Z,33.10
2018-09-01T15:10:58.130Z,33.60
2018-09-01T15:12:15.304Z,34.40
2018-09-01T15:13:31.953Z,34.40
2018-09-01T15:14:49.625Z,33.40
2018-09-01T15:16:06.473Z,33.30
2018-09-01T15:17:24.008Z,33.20
2018-09-01T15:18:41.502Z,33.80
2018-09-01T15:19:58.292Z,33.60
2018-09-01T15:21:14.930Z,33.60
2018-09-01T15:22:31.915Z,34.00
2018-09-01T15:23:49.424Z,32.30
2018-09-01T15:25:06.251Z,31.60
2018-09-01T15:26:23.158Z,32.20
2018-09-01T15:27:39.939Z,32.70
2018-09-01T15:28:57.097Z,33.20
2018-09-01T15:30:14.323Z,33.50
2018-09-01T15:31:35.270Z,32.40
2018-09-01T15:32:58.917Z,33.90
2018-09-01T15:34:16.638Z,32.90
2018-09-01T15:35:34.786Z,34.20
2018-09-01T15:36:52.127Z,34.00
2018-09-01T15:38:09.325Z,33.70
2018-09-01T15:39:27.247Z,34.10
2018-09-01T15:40:44.536Z,34.30
2018-09-01T15:42:01.386Z,34.20
2018-09-01T15:43:18.281Z,34.30
2018-09-01T15:44:35.533Z,33.70
2018-09-01T15:45:53.821Z,34.40
2018-09-01T15:47:10.913Z,34.10
2018-09-01T15:48:27.835Z,34.40
2018-09-01T15:49:45.763Z,34.70
2018-09-01T15:51:02.440Z,33.60
2018-09-01T15:52:19.347Z,33.80
2018-09-01T15:53:36.415Z,33.10
2018-09-01T15:54:52.974Z,34.00
2018-09-01T15:56:10.188Z,33.50
2018-09-01T15:57:26.831Z,33.50
2018-09-01T15:58:43.857Z,34.80
2018-09-01T16:00:02.005Z,33.50
2018-09-01T16:01:22.090Z,34.30
2018-09-01T16:02:39.181Z,33.90
2018-09-01T16:03:55.847Z,33.70
2018-09-01T16:05:13.380Z,35.10
2018-09-01T16:06:30.183Z,34.00
2018-09-01T16:07:46.820Z,34.60
2018-09-01T16:09:05.043Z,34.40
2018-09-01T16:10:22.283Z,34.00
2018-09-01T16:11:39.956Z,35.10
2018-09-01T16:12:56.532Z,34.70
2018-09-01T16:14:13.468Z,34.20
2018-09-01T16:15:29.970Z,34.50
2018-09-01T16:16:46.814Z,34.40
2018-09-01T16:18:03.527Z,34.80
2018-09-01T16:19:20.831Z,34.70
2018-09-01T16:20:38.078Z,34.40
2018-09-01T16:21:55.030Z,34.70
2018-09-01T16:23:11.737Z,33.70
2018-09-01T16:24:28.586Z,33.40
2018-09-01T16:25:45.063Z,33.90
2018-09-01T16:27:02.261Z,33.60
2018-09-01T16:28:18.984Z,34.60
2018-09-01T16:29:36.536Z,34.80
2018-09-01T16:30:54.570Z,34.00
2018-09-01T16:32:11.218Z,33.70
2018-09-01T16:33:28.207Z,34.40
2018-09-01T16:34:45.047Z,34.70